Time;durP1;ratioP1;P1;durP2;ratioP2;P2;SDS_P1;SDS_P2;PMS_P1;PMS_P2;Temp;Humidity;BMP_temperature;BMP_pressure;BME280_temperature;BME280_humidity;BME280_pressure;Samples;Min_cycle;Max_cycle;Signal;HPM_P1;HPM_P2
2023/12/30 00:02:25;;;;;;;9.33;2.57;;;11.20;99.90;;;;;;5001912;28;20444;-39
2023/12/30 00:04:51;;;;;;;7.20;2.63;;;11.20;99.90;;;;;;4998303;28;20510;-36
2023/12/30 00:07:20;;;;;;;11.67;4.70;;;11.20;99.90;;;;;;4998669;28;20461;-35
2023/12/30 00:09:53;;;;;;;4.53;2.10;;;11.20;99.90;;;;;;4998842;28;20439;-40
2023/12/30 00:12:19;;;;;;;7.13;2.37;;;11.20;99.90;;;;;;4996474;28;20476;-34
2023/12/30 00:14:45;;;;;;;6.60;2.27;;;11.20;99.90;;;;;;4997319;28;20503;-38
2023/12/30 00:17:11;;;;;;;5.90;1.93;;;11.20;99.90;;;;;;4999017;28;20451;-36
2023/12/30 00:19:42;;;;;;;7.60;2.40;;;11.20;99.90;;;;;;4998962;28;20916;-34
2023/12/30 00:22:08;;;;;;;3.70;1.90;;;11.20;99.90;;;;;;4981491;28;21042;-38
2023/12/30 00:24:35;;;;;;;11.77;2.57;;;11.20;99.90;;;;;;4981133;28;21051;-37
2023/12/30 00:27:03;;;;;;;6.57;2.70;;;11.20;99.90;;;;;;4999317;28;20447;-35
2023/12/30 00:29:30;;;;;;;5.93;2.43;;;11.20;99.90;;;;;;4994570;28;20863;-37
2023/12/30 00:31:56;;;;;;;5.43;2.60;;;11.20;99.90;;;;;;5000823;28;20487;-36
2023/12/30 00:34:22;;;;;;;6.87;2.40;;;11.20;99.90;;;;;;4985255;28;20873;-37
2023/12/30 00:36:48;;;;;;;9.40;2.23;;;11.10;99.90;;;;;;4984856;28;20535;-35
2023/12/30 00:39:14;;;;;;;11.10;2.43;;;11.10;99.90;;;;;;5002969;28;20444;-34
2023/12/30 00:41:40;;;;;;;9.63;2.10;;;11.20;99.90;;;;;;4984999;28;20727;-36
2023/12/30 00:44:10;;;;;;;4.30;2.30;;;11.10;99.90;;;;;;4998474;28;21210;-37
2023/12/30 00:46:36;;;;;;;8.43;2.50;;;11.10;99.90;;;;;;5002084;28;20461;-37
2023/12/30 00:49:04;;;;;;;14.33;3.00;;;11.10;99.90;;;;;;4996913;28;20447;-37
2023/12/30 00:51:31;;;;;;;6.40;2.23;;;11.20;99.90;;;;;;5002291;28;20482;-34
2023/12/30 00:53:59;;;;;;;9.37;2.63;;;11.20;99.90;;;;;;4985001;28;20540;-37
2023/12/30 00:56:27;;;;;;;16.23;3.07;;;11.10;99.90;;;;;;4984517;28;20423;-34
2023/12/30 00:58:55;;;;;;;5.70;2.40;;;11.10;99.90;;;;;;5000899;28;21530;-38
2023/12/30 01:01:22;;;;;;;8.27;2.70;;;11.10;99.90;;;;;;5002093;28;20449;-33
2023/12/30 01:03:48;;;;;;;6.13;2.57;;;11.10;99.90;;;;;;4987617;28;20746;-33
2023/12/30 01:06:14;;;;;;;10.07;2.33;;;11.10;99.90;;;;;;5009956;28;21341;-38
2023/12/30 01:08:42;;;;;;;11.10;3.20;;;11.10;99.90;;;;;;5002130;28;20909;-35
2023/12/30 01:11:12;;;;;;;5.13;2.67;;;11.10;99.90;;;;;;4984100;28;20448;-30
2023/12/30 01:13:38;;;;;;;5.63;2.40;;;11.10;99.90;;;;;;4983982;28;20409;-32
2023/12/30 01:16:05;;;;;;;7.67;2.87;;;11.10;99.90;;;;;;5000182;28;20424;-32
2023/12/30 01:18:31;;;;;;;6.47;2.40;;;11.10;99.90;;;;;;4986615;28;20441;-36
2023/12/30 01:21:03;;;;;;;6.30;4.40;;;11.10;99.90;;;;;;5002077;28;20462;-36
2023/12/30 01:23:30;;;;;;;5.63;2.13;;;11.10;99.90;;;;;;5001896;28;20447;-37
2023/12/30 01:25:56;;;;;;;10.00;2.70;;;11.10;99.90;;;;;;5001233;28;20432;-40
2023/12/30 01:28:22;;;;;;;10.27;2.23;;;11.10;99.90;;;;;;5002063;28;20480;-30
2023/12/30 01:30:48;;;;;;;9.00;2.47;;;11.10;99.90;;;;;;4984373;28;20476;-36
2023/12/30 01:33:15;;;;;;;6.53;2.20;;;11.10;99.90;;;;;;5002096;28;21585;-37
2023/12/30 01:35:43;;;;;;;3.77;2.00;;;11.10;99.90;;;;;;4974633;28;20174;-37
2023/12/30 01:38:10;;;;;;;4.50;2.03;;;11.10;99.90;;;;;;4984102;28;20433;-35
2023/12/30 01:40:36;;;;;;;5.10;2.30;;;11.10;99.90;;;;;;5001679;28;20506;-33
2023/12/30 01:43:04;;;;;;;8.07;2.90;;;11.00;99.90;;;;;;4999747;28;20431;-35
2023/12/30 01:45:32;;;;;;;6.33;2.20;;;11.10;99.90;;;;;;4996049;28;20424;-38
2023/12/30 01:47:59;;;;;;;5.23;1.90;;;11.00;99.90;;;;;;4999742;28;20962;-35
2023/12/30 01:50:26;;;;;;;5.40;2.50;;;11.00;99.90;;;;;;4986754;28;20925;-31
2023/12/30 01:52:52;;;;;;;7.13;2.10;;;11.00;99.90;;;;;;4967100;28;20455;-26
2023/12/30 01:55:18;;;;;;;7.80;2.33;;;11.00;99.90;;;;;;5001037;28;20420;-34
2023/12/30 01:57:45;;;;;;;7.63;1.93;;;11.00;99.90;;;;;;4997725;28;20441;-35
2023/12/30 02:00:21;;;;;;;6.27;2.70;;;11.00;99.90;;;;;;4997797;28;21067;-32
2023/12/30 02:02:49;;;;;;;6.70;2.50;;;11.00;99.90;;;;;;4997622;28;20437;-32
2023/12/30 02:05:15;;;;;;;7.40;3.97;;;11.00;99.90;;;;;;4980866;28;21137;-34
2023/12/30 02:07:44;;;;;;;6.40;2.27;;;11.00;99.90;;;;;;4997430;28;21306;-34
2023/12/30 02:10:13;;;;;;;10.13;2.40;;;11.00;99.90;;;;;;4997944;28;20531;-33
2023/12/30 02:12:39;;;;;;;7.30;3.10;;;11.00;99.90;;;;;;4977373;28;20454;-32
2023/12/30 02:15:17;;;;;;;6.10;1.93;;;11.00;99.90;;;;;;4996718;28;20426;-32
2023/12/30 02:17:44;;;;;;;5.17;2.30;;;11.00;99.90;;;;;;4989226;28;20456;-33
2023/12/30 02:20:11;;;;;;;7.87;2.50;;;11.00;99.90;;;;;;4997267;28;20512;-33
2023/12/30 02:22:46;;;;;;;10.00;3.53;;;11.00;99.90;;;;;;4996829;28;20421;-36
2023/12/30 02:25:13;;;;;;;6.87;2.50;;;11.00;99.90;;;;;;4997717;28;21034;-32
2023/12/30 02:27:42;;;;;;;6.27;2.40;;;11.00;99.90;;;;;;4996945;28;20448;-32
2023/12/30 02:30:10;;;;;;;8.63;2.93;;;11.00;99.90;;;;;;4981364;28;20539;-33
2023/12/30 02:32:36;;;;;;;5.63;2.00;;;11.00;99.90;;;;;;4997275;28;20444;-34
2023/12/30 02:35:03;;;;;;;10.87;2.93;;;11.00;99.90;;;;;;4961950;28;20433;-32
2023/12/30 02:37:29;;;;;;;13.20;2.97;;;11.00;99.90;;;;;;4997549;28;20460;-35
2023/12/30 02:39:57;;;;;;;12.07;2.77;;;11.00;99.90;;;;;;4996370;28;20436;-31
2023/12/30 02:42:23;;;;;;;6.47;3.17;;;11.00;99.90;;;;;;4974835;28;21092;-34
2023/12/30 02:44:50;;;;;;;6.73;2.80;;;11.00;99.90;;;;;;4996396;28;20480;-34
2023/12/30 02:47:16;;;;;;;9.00;2.73;;;10.90;99.90;;;;;;4994039;28;20483;-30
2023/12/30 02:49:45;;;;;;;5.87;2.63;;;11.00;99.90;;;;;;4998471;28;21072;-32
2023/12/30 02:52:12;;;;;;;11.80;2.87;;;10.90;99.90;;;;;;4996085;28;20476;-35
2023/12/30 02:54:40;;;;;;;10.50;2.87;;;10.90;99.90;;;;;;4997919;28;20431;-32
2023/12/30 02:57:06;;;;;;;5.63;2.53;;;10.90;99.90;;;;;;4996070;28;20955;-32
2023/12/30 02:59:35;;;;;;;15.73;3.40;;;10.90;99.90;;;;;;4992367;28;20433;-32
2023/12/30 03:02:01;;;;;;;9.37;2.90;;;10.90;99.90;;;;;;4995960;28;20427;-34
2023/12/30 03:04:27;;;;;;;8.97;2.43;;;10.90;99.90;;;;;;4959689;28;20456;-35
2023/12/30 03:06:55;;;;;;;11.00;2.47;;;10.90;99.90;;;;;;5001175;28;20998;-31
2023/12/30 03:09:23;;;;;;;12.20;2.87;;;10.90;99.90;;;;;;4994702;28;20436;-31
2023/12/30 03:11:49;;;;;;;6.33;2.23;;;10.90;99.90;;;;;;4998708;28;20472;-36
2023/12/30 03:14:15;;;;;;;6.43;2.10;;;10.90;99.90;;;;;;5000482;28;20449;-29
2023/12/30 03:16:43;;;;;;;6.57;2.10;;;10.90;99.90;;;;;;4975769;28;20548;-32
2023/12/30 03:19:10;;;;;;;12.00;2.73;;;10.90;99.90;;;;;;4996883;28;20515;-33
2023/12/30 03:21:35;;;;;;;7.60;2.50;;;10.90;99.90;;;;;;4975367;28;20460;-32
2023/12/30 03:24:04;;;;;;;6.80;1.97;;;10.90;99.90;;;;;;4962294;28;20449;-30
2023/12/30 03:26:30;;;;;;;7.10;2.10;;;10.90;99.90;;;;;;4995566;28;21090;-33
2023/12/30 03:28:58;;;;;;;10.20;2.80;;;10.90;99.90;;;;;;4996584;28;20515;-32
2023/12/30 03:31:29;;;;;;;6.80;2.67;;;10.90;99.90;;;;;;4999816;28;20475;-33
2023/12/30 03:34:00;;;;;;;7.17;2.83;;;10.90;99.90;;;;;;4991961;28;20466;-34
2023/12/30 03:36:28;;;;;;;8.07;2.50;;;10.90;99.90;;;;;;4966993;28;21033;-33
2023/12/30 03:38:54;;;;;;;4.30;2.17;;;10.90;99.90;;;;;;4974659;28;20939;-32
2023/12/30 03:41:20;;;;;;;5.50;2.27;;;10.90;99.90;;;;;;4999803;28;20482;-35
2023/12/30 03:43:48;;;;;;;9.53;3.00;;;10.90;99.90;;;;;;4963658;28;20417;-35
2023/12/30 03:46:14;;;;;;;6.07;2.47;;;10.90;99.90;;;;;;4980131;28;20413;-37
2023/12/30 03:48:42;;;;;;;6.73;2.37;;;10.90;99.90;;;;;;4976859;28;20427;-35
2023/12/30 03:51:09;;;;;;;7.33;2.73;;;10.90;99.90;;;;;;4985636;28;20935;-37
2023/12/30 03:53:40;;;;;;;11.57;3.10;;;10.90;99.90;;;;;;4961131;28;20475;-32
2023/12/30 03:56:06;;;;;;;6.70;2.53;;;10.80;99.90;;;;;;4979863;28;20425;-36
2023/12/30 03:58:32;;;;;;;6.67;2.70;;;10.80;99.90;;;;;;4961935;28;20447;-38
2023/12/30 04:00:58;;;;;;;7.73;2.63;;;10.80;99.90;;;;;;4946314;28;20952;-37
2023/12/30 04:03:26;;;;;;;5.93;2.50;;;10.80;99.90;;;;;;4978106;28;20442;-34
2023/12/30 04:05:51;;;;;;;9.47;3.00;;;10.80;99.90;;;;;;4965998;28;20429;-33
2023/12/30 04:08:18;;;;;;;7.00;2.50;;;10.80;99.90;;;;;;4983364;28;20994;-31
2023/12/30 04:10:44;;;;;;;6.13;2.77;;;10.80;99.90;;;;;;4949984;28;20556;-37
2023/12/30 04:13:12;;;;;;;10.67;2.40;;;10.80;99.90;;;;;;4965590;28;20510;-34
2023/12/30 04:15:38;;;;;;;7.33;2.60;;;10.80;99.90;;;;;;4966223;28;21033;-36
2023/12/30 04:18:06;;;;;;;9.63;3.57;;;10.80;99.90;;;;;;4965655;28;20453;-34
2023/12/30 04:20:36;;;;;;;5.40;2.27;;;10.80;99.90;;;;;;4966052;28;20433;-34
2023/12/30 04:23:07;;;;;;;7.47;2.00;;;10.80;99.90;;;;;;4964941;28;20937;-36
2023/12/30 04:25:33;;;;;;;10.00;2.60;;;10.80;99.90;;;;;;4964696;28;20441;-33
2023/12/30 04:28:02;;;;;;;8.20;2.50;;;10.80;99.90;;;;;;4983266;28;20460;-39
2023/12/30 04:30:32;;;;;;;7.87;2.30;;;10.80;99.90;;;;;;4965430;28;20413;-36
2023/12/30 04:32:58;;;;;;;7.30;3.10;;;10.80;99.90;;;;;;4965109;28;21305;-32
2023/12/30 04:35:25;;;;;;;6.17;2.40;;;10.80;99.90;;;;;;4949223;28;20437;-38
2023/12/30 04:37:51;;;;;;;9.87;2.40;;;10.80;99.90;;;;;;4982387;28;20323;-37
2023/12/30 04:40:20;;;;;;;4.40;2.33;;;10.80;99.90;;;;;;4949793;28;20417;-33
2023/12/30 04:42:46;;;;;;;10.50;2.73;;;10.80;99.90;;;;;;4964999;28;21288;-37
2023/12/30 04:45:16;;;;;;;5.40;2.43;;;10.80;99.90;;;;;;4953618;28;21371;-38
2023/12/30 04:47:47;;;;;;;7.20;2.50;;;10.80;99.90;;;;;;4968353;28;20437;-35
2023/12/30 04:50:14;;;;;;;4.40;1.87;;;10.70;99.90;;;;;;4980936;28;20437;-38
2023/12/30 04:52:42;;;;;;;9.50;2.90;;;10.80;99.90;;;;;;4973875;28;20429;-36
2023/12/30 04:55:08;;;;;;;5.53;2.20;;;10.80;99.90;;;;;;4972936;28;21203;-38
2023/12/30 04:57:37;;;;;;;6.53;2.40;;;10.80;99.90;;;;;;4948639;28;20530;-39
2023/12/30 05:00:06;;;;;;;8.57;2.53;;;10.70;99.90;;;;;;4972338;28;20420;-36
2023/12/30 05:02:35;;;;;;;9.90;2.70;;;10.80;99.90;;;;;;4984513;28;20942;-33
2023/12/30 05:05:03;;;;;;;5.13;2.57;;;10.70;99.90;;;;;;4967968;28;20452;-34
2023/12/30 05:07:29;;;;;;;6.97;2.40;;;10.70;99.90;;;;;;4984104;28;20443;-35
2023/12/30 05:09:55;;;;;;;9.30;3.27;;;10.70;99.90;;;;;;4998251;28;20425;-32
2023/12/30 05:12:21;;;;;;;6.67;2.20;;;10.70;99.90;;;;;;4982088;28;20568;-37
2023/12/30 05:14:46;;;;;;;6.60;2.60;;;10.70;99.90;;;;;;4964588;28;20429;-40
2023/12/30 05:17:13;;;;;;;4.70;2.30;;;10.70;99.90;;;;;;4981530;28;20525;-33
2023/12/30 05:19:41;;;;;;;7.40;2.87;;;10.70;99.90;;;;;;4982344;28;20233;-38
2023/12/30 05:22:07;;;;;;;5.70;2.30;;;10.70;99.90;;;;;;4964055;28;20445;-38
2023/12/30 05:24:33;;;;;;;6.27;2.77;;;10.70;99.90;;;;;;4991519;28;20467;-32
2023/12/30 05:27:02;;;;;;;5.70;2.30;;;10.70;99.90;;;;;;4983288;28;20445;-36
2023/12/30 05:29:28;;;;;;;9.83;2.73;;;10.70;99.90;;;;;;4981881;28;20452;-32
2023/12/30 05:31:54;;;;;;;4.83;2.20;;;10.70;99.90;;;;;;4964033;28;20477;-38
2023/12/30 05:34:22;;;;;;;5.10;2.40;;;10.70;99.90;;;;;;4979976;28;20425;-36
2023/12/30 05:36:50;;;;;;;4.60;2.10;;;10.70;99.90;;;;;;4972567;28;20484;-38
2023/12/30 05:39:16;;;;;;;10.63;3.13;;;10.70;99.90;;;;;;4964518;28;20456;-38
2023/12/30 05:41:42;;;;;;;7.50;2.13;;;10.70;99.90;;;;;;4982017;28;20450;-34
2023/12/30 05:44:08;;;;;;;4.80;2.87;;;10.70;99.90;;;;;;4963923;28;20554;-34
2023/12/30 05:46:36;;;;;;;6.00;2.10;;;10.70;99.90;;;;;;4973230;28;20770;-34
2023/12/30 05:49:02;;;;;;;11.63;3.17;;;10.70;99.90;;;;;;4984090;28;20419;-36
2023/12/30 05:51:33;;;;;;;9.57;3.17;;;10.70;99.90;;;;;;4984540;28;20483;-35
2023/12/30 05:53:59;;;;;;;6.63;2.30;;;10.70;99.90;;;;;;4968546;28;20424;-38
2023/12/30 05:56:26;;;;;;;10.30;4.17;;;10.70;99.90;;;;;;4967460;28;20507;-35
2023/12/30 05:58:54;;;;;;;6.20;2.30;;;10.70;99.90;;;;;;4963806;28;20523;-36
2023/12/30 06:01:22;;;;;;;6.30;2.13;;;10.70;99.90;;;;;;4948545;28;21159;-36
2023/12/30 06:03:48;;;;;;;6.30;2.60;;;10.70;99.90;;;;;;4981772;28;20421;-37
2023/12/30 06:06:14;;;;;;;10.13;2.60;;;10.70;99.90;;;;;;4982166;28;20434;-35
2023/12/30 06:08:43;;;;;;;7.87;2.73;;;10.70;99.90;;;;;;4981733;28;20515;-36
2023/12/30 06:11:09;;;;;;;11.57;2.70;;;10.60;99.90;;;;;;4977683;28;20879;-32
2023/12/30 06:13:35;;;;;;;6.00;2.13;;;10.70;99.90;;;;;;4950120;28;20811;-32
2023/12/30 06:16:02;;;;;;;7.70;2.73;;;10.70;99.90;;;;;;4982134;28;20422;-36
2023/12/30 06:18:30;;;;;;;10.37;2.73;;;10.60;99.90;;;;;;4981747;28;20842;-34
2023/12/30 06:20:58;;;;;;;9.37;2.70;;;10.60;99.90;;;;;;4981785;28;20426;-40
2023/12/30 06:23:27;;;;;;;6.30;3.27;;;10.60;99.90;;;;;;4981395;28;20438;-33
2023/12/30 06:25:53;;;;;;;12.10;2.67;;;10.60;99.90;;;;;;4978643;28;20543;-33
2023/12/30 06:28:19;;;;;;;4.60;2.37;;;10.60;99.90;;;;;;4992828;28;20452;-36
2023/12/30 06:30:47;;;;;;;5.50;2.43;;;10.60;99.90;;;;;;4947410;28;20560;-37
2023/12/30 06:33:13;;;;;;;9.67;3.23;;;10.60;99.90;;;;;;4980706;28;20504;-35
2023/12/30 06:35:41;;;;;;;7.23;2.40;;;10.60;99.90;;;;;;4963365;28;20433;-33
2023/12/30 06:38:07;;;;;;;5.30;2.83;;;10.60;99.90;;;;;;4968892;28;20875;-35
2023/12/30 06:40:34;;;;;;;8.90;2.90;;;10.60;99.90;;;;;;4995976;28;20978;-38
2023/12/30 06:43:00;;;;;;;14.07;2.60;;;10.60;99.90;;;;;;4964096;28;20417;-32
2023/12/30 06:45:26;;;;;;;6.30;2.50;;;10.60;99.90;;;;;;4980948;28;20445;-40
2023/12/30 06:47:54;;;;;;;5.80;2.77;;;10.60;99.90;;;;;;4980929;28;20925;-30
2023/12/30 06:50:22;;;;;;;9.60;3.27;;;10.60;99.90;;;;;;4981492;28;20426;-33
2023/12/30 06:52:48;;;;;;;5.27;2.67;;;10.60;99.90;;;;;;4981456;28;20982;-37
2023/12/30 06:55:16;;;;;;;12.90;3.63;;;10.60;99.90;;;;;;4981514;28;20953;-35
2023/12/30 06:57:43;;;;;;;12.27;2.60;;;10.60;99.90;;;;;;4963439;28;20438;-37
2023/12/30 07:00:12;;;;;;;4.57;2.53;;;10.60;99.90;;;;;;4981369;28;20417;-37
2023/12/30 07:02:39;;;;;;;6.90;2.10;;;10.60;99.90;;;;;;4963566;28;20433;-37
2023/12/30 07:05:06;;;;;;;9.70;3.23;;;10.60;99.90;;;;;;4947297;28;21250;-35
2023/12/30 07:07:32;;;;;;;9.67;2.90;;;10.60;99.90;;;;;;4980844;28;21297;-36
2023/12/30 07:09:58;;;;;;;7.90;3.13;;;10.60;99.90;;;;;;4947338;28;20440;-39
2023/12/30 07:12:26;;;;;;;7.67;2.73;;;10.60;99.90;;;;;;4996688;28;20472;-39
2023/12/30 07:14:54;;;;;;;12.10;2.70;;;10.60;99.90;;;;;;4992149;28;21145;-33
2023/12/30 07:17:21;;;;;;;10.60;2.80;;;10.60;99.90;;;;;;4963151;28;20453;-36
2023/12/30 07:19:47;;;;;;;13.30;2.97;;;10.60;99.90;;;;;;4963235;28;20842;-33
2023/12/30 07:22:13;;;;;;;5.83;2.60;;;10.50;99.90;;;;;;4980994;28;20473;-38
2023/12/30 07:24:42;;;;;;;9.67;3.00;;;10.60;99.90;;;;;;4963130;28;20436;-36
2023/12/30 07:27:08;;;;;;;7.23;2.53;;;10.50;99.90;;;;;;4980387;28;20898;-33
2023/12/30 07:29:34;;;;;;;7.93;3.20;;;10.50;99.90;;;;;;4961765;28;20425;-33
2023/12/30 07:32:05;;;;;;;8.07;3.23;;;10.50;99.90;;;;;;4975030;28;20533;-37
2023/12/30 07:34:34;;;;;;;4.30;2.57;;;10.50;99.90;;;;;;4980455;28;20495;-38
2023/12/30 07:37:02;;;;;;;7.60;2.80;;;10.50;99.90;;;;;;4981639;28;20435;-39
2023/12/30 07:39:33;;;;;;;5.60;2.57;;;10.60;99.90;;;;;;4993488;28;20866;-39
2023/12/30 07:42:01;;;;;;;10.30;3.27;;;10.50;99.90;;;;;;4982506;28;20428;-36
2023/12/30 07:44:33;;;;;;;8.17;3.03;;;10.50;99.90;;;;;;4949357;28;20464;-36
2023/12/30 07:47:00;;;;;;;7.03;2.80;;;10.50;99.90;;;;;;4995742;28;20444;-37
2023/12/30 07:49:26;;;;;;;7.63;2.90;;;10.50;99.90;;;;;;4951690;28;20445;-34
2023/12/30 07:51:54;;;;;;;8.37;2.90;;;10.50;99.90;;;;;;4977933;28;20494;-34
2023/12/30 07:54:20;;;;;;;8.00;2.57;;;10.50;99.90;;;;;;4969420;28;20995;-35
2023/12/30 07:56:46;;;;;;;7.70;2.50;;;10.50;99.90;;;;;;4964751;28;20441;-38
2023/12/30 07:59:13;;;;;;;10.23;3.60;;;10.50;99.90;;;;;;4983358;28;20533;-33
2023/12/30 08:01:43;;;;;;;6.43;2.90;;;10.50;99.90;;;;;;4971596;28;20437;-34
2023/12/30 08:04:13;;;;;;;8.93;2.80;;;10.50;99.90;;;;;;5002613;28;20435;-38
2023/12/30 08:06:40;;;;;;;5.80;2.60;;;10.50;99.90;;;;;;4984715;28;20555;-34
2023/12/30 08:09:11;;;;;;;8.27;2.93;;;10.50;99.90;;;;;;4965576;28;20420;-39
2023/12/30 08:11:37;;;;;;;16.37;2.47;;;10.50;99.90;;;;;;4973103;28;20472;-35
2023/12/30 08:14:03;;;;;;;11.67;3.53;;;10.50;99.90;;;;;;4995579;28;20451;-37
2023/12/30 08:16:29;;;;;;;6.57;2.63;;;10.50;99.90;;;;;;4996255;28;20433;-34
2023/12/30 08:18:55;;;;;;;8.23;3.03;;;10.50;99.90;;;;;;4982295;28;20418;-33
2023/12/30 08:21:24;;;;;;;8.67;3.00;;;10.50;99.90;;;;;;4964914;28;20593;-38
2023/12/30 08:23:54;;;;;;;9.27;2.37;;;10.50;99.90;;;;;;4985882;28;20992;-39
2023/12/30 08:26:23;;;;;;;7.97;2.70;;;10.50;99.90;;;;;;4968903;28;20485;-35
2023/12/30 08:28:51;;;;;;;5.10;2.53;;;10.50;99.90;;;;;;4982004;28;21264;-35
2023/12/30 08:31:20;;;;;;;5.87;2.67;;;10.50;99.90;;;;;;4964835;28;20568;-30
2023/12/30 08:33:48;;;;;;;4.57;2.33;;;10.50;99.90;;;;;;4981772;28;20498;-37
2023/12/30 08:36:14;;;;;;;6.67;2.83;;;10.50;99.90;;;;;;4988172;28;20433;-37
2023/12/30 08:38:40;;;;;;;6.57;2.40;;;10.50;99.90;;;;;;4999389;28;20487;-38
2023/12/30 08:41:10;;;;;;;4.70;2.20;;;10.50;99.90;;;;;;4981268;28;21012;-35
2023/12/30 08:43:36;;;;;;;8.63;2.67;;;10.50;99.90;;;;;;4986526;28;20425;-33
2023/12/30 08:46:02;;;;;;;4.20;2.20;;;10.50;99.90;;;;;;4981392;28;20456;-36
2023/12/30 08:48:31;;;;;;;7.00;3.00;;;10.50;99.90;;;;;;4985760;28;21083;-39
2023/12/30 08:50:57;;;;;;;3.77;2.50;;;10.50;99.90;;;;;;4980784;28;21380;-31
2023/12/30 08:53:25;;;;;;;6.73;3.40;;;10.50;99.90;;;;;;4969782;28;20532;-33
2023/12/30 08:55:55;;;;;;;6.50;2.57;;;10.50;99.90;;;;;;4985514;28;20513;-33
2023/12/30 08:58:23;;;;;;;6.50;2.37;;;10.50;99.90;;;;;;4963489;28;20449;-33
2023/12/30 09:00:50;;;;;;;6.23;2.40;;;10.50;99.90;;;;;;4963619;28;20523;-36
2023/12/30 09:03:16;;;;;;;8.73;2.63;;;10.50;99.90;;;;;;4980318;28;20433;-30
2023/12/30 09:05:44;;;;;;;14.47;2.93;;;10.50;99.90;;;;;;4980292;28;20565;-37
2023/12/30 09:08:10;;;;;;;7.07;2.70;;;10.50;99.90;;;;;;4986713;28;20749;-36
2023/12/30 09:10:38;;;;;;;6.30;2.63;;;10.50;99.90;;;;;;4947173;28;20492;-33
2023/12/30 09:13:04;;;;;;;8.93;2.93;;;10.50;99.90;;;;;;4983017;28;20460;-33
2023/12/30 09:15:34;;;;;;;7.63;2.90;;;10.50;99.90;;;;;;4963815;28;20432;-35
2023/12/30 09:18:04;;;;;;;6.77;2.43;;;10.50;99.90;;;;;;4981129;28;20469;-35
2023/12/30 09:20:30;;;;;;;7.03;2.77;;;10.50;99.90;;;;;;4970589;28;20425;-38
2023/12/30 09:22:56;;;;;;;7.90;2.63;;;10.50;99.90;;;;;;4979109;28;21305;-33
2023/12/30 09:25:24;;;;;;;7.90;3.17;;;10.50;99.90;;;;;;4988176;28;20444;-36
2023/12/30 09:27:50;;;;;;;6.10;2.80;;;10.50;99.90;;;;;;5001115;28;21260;-32
2023/12/30 09:30:19;;;;;;;5.67;2.90;;;10.50;99.90;;;;;;5000176;28;20417;-33
2023/12/30 09:32:45;;;;;;;4.73;2.67;;;10.50;99.90;;;;;;5027190;23;20524;-86
2023/12/30 09:35:15;;;;;;;8.40;3.03;;;10.50;99.90;;;;;;4985560;28;21172;-86
2023/12/30 09:37:43;;;;;;;5.20;2.57;;;10.50;99.90;;;;;;4994412;28;20524;-86
2023/12/30 09:40:13;;;;;;;6.60;2.77;;;10.50;99.90;;;;;;4986979;28;20465;-85
2023/12/30 09:42:46;;;;;;;7.27;3.17;;;10.50;99.90;;;;;;5010793;28;20429;-86
2023/12/30 09:45:16;;;;;;;7.63;2.77;;;10.50;99.90;;;;;;5001943;28;20428;-87
2023/12/30 09:47:45;;;;;;;8.10;3.37;;;10.50;99.90;;;;;;4974348;28;20457;-85
2023/12/30 09:50:13;;;;;;;6.30;3.00;;;10.50;99.90;;;;;;4987409;28;20441;-86
2023/12/30 09:52:44;;;;;;;10.47;5.27;;;10.50;99.90;;;;;;5002334;28;20575;-86
2023/12/30 09:55:17;;;;;;;7.03;3.23;;;10.50;99.90;;;;;;4981434;28;20443;-85
2023/12/30 09:57:45;;;;;;;10.83;3.53;;;10.50;99.90;;;;;;4996670;28;20494;-85
2023/12/30 10:00:16;;;;;;;9.60;3.47;;;10.50;99.90;;;;;;4968041;28;21112;-85
2023/12/30 10:02:45;;;;;;;10.90;3.20;;;10.50;99.90;;;;;;4965242;28;20519;-86
2023/12/30 10:05:15;;;;;;;6.67;3.50;;;10.50;99.90;;;;;;5007324;28;20504;-84
2023/12/30 10:07:41;;;;;;;9.27;3.13;;;10.50;99.90;;;;;;5001430;28;21138;-84
2023/12/30 10:10:09;;;;;;;9.00;3.07;;;10.50;99.90;;;;;;4993904;28;20432;-86
2023/12/30 10:12:37;;;;;;;4.33;2.63;;;10.50;99.90;;;;;;4987918;28;20977;-85
2023/12/30 10:15:08;;;;;;;6.33;3.17;;;10.50;99.90;;;;;;4987006;28;20428;-85
2023/12/30 10:17:35;;;;;;;6.87;2.97;;;10.50;99.90;;;;;;4989750;28;20597;-85
2023/12/30 10:20:01;;;;;;;6.13;3.07;;;10.50;99.90;;;;;;4984389;28;20484;-86
2023/12/30 10:22:32;;;;;;;6.70;3.63;;;10.50;99.90;;;;;;4985930;28;20426;-84
2023/12/30 10:25:07;;;;;;;7.30;3.73;;;10.50;99.90;;;;;;5094579;27;21568;-34
2023/12/30 10:27:38;;;;;;;8.90;3.30;;;10.50;99.90;;;;;;5092778;28;20801;-33
2023/12/30 10:30:08;;;;;;;6.73;3.10;;;10.50;99.90;;;;;;5094874;28;21002;-36
2023/12/30 10:32:34;;;;;;;7.27;2.80;;;10.50;99.90;;;;;;5092693;28;20450;-31
2023/12/30 10:35:04;;;;;;;7.03;3.27;;;10.50;99.90;;;;;;5077398;28;20400;-32
2023/12/30 10:37:32;;;;;;;11.67;3.00;;;10.50;99.90;;;;;;5094887;28;20596;-34
2023/12/30 10:40:02;;;;;;;9.00;3.30;;;10.50;99.90;;;;;;5076159;28;20475;-36
2023/12/30 10:42:28;;;;;;;7.20;3.47;;;10.50;99.90;;;;;;5094892;28;20448;-36
2023/12/30 10:45:00;;;;;;;7.97;3.33;;;10.50;99.90;;;;;;5091945;28;20833;-34
2023/12/30 10:47:28;;;;;;;6.43;3.00;;;10.50;99.90;;;;;;5056245;28;20441;-33
2023/12/30 10:50:04;;;;;;;8.10;3.40;;;10.50;99.90;;;;;;5094922;28;20451;-31
2023/12/30 10:52:34;;;;;;;10.23;3.40;;;10.50;99.90;;;;;;5087069;28;20521;-31
2023/12/30 10:55:09;;;;;;;7.17;3.10;;;10.50;99.90;;;;;;5095097;28;20432;-34
2023/12/30 10:57:44;;;;;;;7.13;3.30;;;10.50;99.90;;;;;;5095271;28;20954;-33
2023/12/30 11:00:14;;;;;;;6.47;3.67;;;10.60;99.90;;;;;;5096815;28;20485;-32
2023/12/30 11:02:41;;;;;;;6.40;2.80;;;10.60;99.90;;;;;;5100865;28;20439;-37
2023/12/30 11:05:16;;;;;;;7.30;3.03;;;10.60;99.90;;;;;;5095540;28;21063;-29
2023/12/30 11:07:43;;;;;;;5.73;3.00;;;10.60;99.90;;;;;;5093328;28;20546;-34
2023/12/30 11:10:23;;;;;;;6.50;2.93;;;10.60;99.90;;;;;;5076874;28;20793;-29
2023/12/30 11:12:53;;;;;;;7.37;3.53;;;10.60;99.90;;;;;;5094652;28;20474;-35
2023/12/30 11:15:28;;;;;;;14.80;4.00;;;10.60;99.90;;;;;;5094597;28;20411;-30
2023/12/30 11:18:01;;;;;;;6.03;3.37;;;10.60;99.90;;;;;;5092626;28;20458;-36
2023/12/30 11:20:35;;;;;;;11.63;3.13;;;10.60;99.90;;;;;;5094185;28;20431;-35
2023/12/30 11:23:03;;;;;;;7.20;3.80;;;10.60;99.90;;;;;;5094610;28;20546;-35
2023/12/30 11:25:46;;;;;;;7.77;4.00;;;10.60;99.90;;;;;;5093874;28;20424;-31
2023/12/30 11:28:18;;;;;;;8.50;3.73;;;10.60;99.90;;;;;;5073250;28;20457;-34
2023/12/30 11:30:45;;;;;;;6.90;3.23;;;10.60;99.90;;;;;;5079137;28;21193;-32
2023/12/30 11:33:13;;;;;;;8.90;3.00;;;10.60;99.90;;;;;;5094488;28;20456;-32
2023/12/30 11:35:42;;;;;;;9.97;3.30;;;10.60;99.90;;;;;;5084998;28;20435;-33
2023/12/30 11:38:11;;;;;;;14.33;3.80;;;10.60;99.90;;;;;;5080599;28;20444;-34
2023/12/30 11:40:41;;;;;;;8.47;2.90;;;10.60;99.90;;;;;;5079382;28;20936;-29
2023/12/30 11:43:10;;;;;;;13.30;3.20;;;10.60;99.90;;;;;;5075115;28;20963;-36
2023/12/30 11:45:39;;;;;;;7.50;3.30;;;10.60;99.90;;;;;;5056899;28;20467;-35
2023/12/30 11:48:07;;;;;;;9.93;3.57;;;10.60;99.90;;;;;;5080270;28;20927;-32
2023/12/30 11:50:33;;;;;;;6.33;2.90;;;10.70;99.90;;;;;;5080863;28;20456;-31
2023/12/30 11:53:00;;;;;;;6.80;3.50;;;10.60;99.90;;;;;;5078914;28;20556;-33
2023/12/30 11:55:29;;;;;;;8.97;2.90;;;10.60;99.90;;;;;;5078013;28;20448;-37
2023/12/30 11:57:56;;;;;;;5.40;3.40;;;10.60;99.90;;;;;;5057880;28;20441;-32
2023/12/30 12:00:34;;;;;;;9.00;3.73;;;10.60;99.90;;;;;;5064037;28;20434;-36
2023/12/30 12:03:03;;;;;;;8.70;3.93;;;10.70;99.90;;;;;;5076187;28;20457;-35
2023/12/30 12:05:33;;;;;;;9.73;2.90;;;10.70;99.90;;;;;;5086570;28;20425;-30
2023/12/30 12:07:59;;;;;;;6.17;3.03;;;10.70;99.90;;;;;;5079481;28;20602;-35
2023/12/30 12:10:25;;;;;;;10.37;4.10;;;10.70;99.90;;;;;;5076932;28;21011;-35
2023/12/30 12:13:02;;;;;;;8.90;3.10;;;10.70;99.90;;;;;;5077372;28;20479;-33
2023/12/30 12:16:28;;;;;;;10.37;3.27;;;10.70;99.90;;;;;;5078065;28;20482;-34
2023/12/30 12:19:02;;;;;;;9.57;2.77;;;10.70;99.90;;;;;;5064054;28;20425;-34
2023/12/30 12:21:28;;;;;;;5.73;2.90;;;10.70;99.90;;;;;;5083041;28;20527;-30
2023/12/30 12:23:54;;;;;;;8.93;2.63;;;10.70;99.90;;;;;;5082682;28;20957;-29
2023/12/30 12:26:22;;;;;;;6.80;2.37;;;10.70;99.90;;;;;;5078829;28;20754;-32
2023/12/30 12:28:53;;;;;;;6.57;2.97;;;10.70;99.90;;;;;;5063498;28;20461;-35
2023/12/30 12:31:21;;;;;;;10.80;3.27;;;10.70;99.90;;;;;;5077472;28;20448;-33
2023/12/30 12:33:48;;;;;;;5.43;2.47;;;10.70;99.90;;;;;;5077440;28;20439;-36
2023/12/30 12:36:17;;;;;;;10.87;3.10;;;10.70;99.90;;;;;;5073623;28;21241;-33
2023/12/30 12:38:44;;;;;;;8.77;2.93;;;10.70;99.90;;;;;;5070338;28;20536;-35
2023/12/30 12:41:10;;;;;;;8.20;2.67;;;10.70;99.90;;;;;;5059226;28;20464;-37
2023/12/30 12:43:39;;;;;;;5.87;2.60;;;10.80;99.90;;;;;;5073229;28;20472;-34
2023/12/30 12:46:05;;;;;;;7.60;2.60;;;10.80;99.90;;;;;;5069354;28;20877;-33
2023/12/30 12:48:33;;;;;;;8.30;3.00;;;10.80;99.90;;;;;;5075626;28;20437;-36
2023/12/30 12:50:59;;;;;;;4.63;3.03;;;10.80;99.90;;;;;;5077354;28;20428;-35